sensor_id;sensor_type;location;lat;lon;timestamp;pressure;altitude;pressure_sealevel;temperature;humidity
39769;BME280;38939;47.824;14.642;2023-07-13T00:00:06;96856.25;;;20.44;83.11
39769;BME280;38939;47.824;14.642;2023-07-13T00:01:12;96853.31;;;20.46;82.89
39769;BME280;38939;47.824;14.642;2023-07-13T00:02:14;96858.34;;;20.47;82.80
39769;BME280;38939;47.824;14.642;2023-07-13T00:03:16;96854.66;;;20.48;82.74
39769;BME280;38939;47.824;14.642;2023-07-13T00:04:19;96848.28;;;20.49;82.88
39769;BME280;38939;47.824;14.642;2023-07-13T00:05:22;96845.09;;;20.47;83.14
39769;BME280;38939;47.824;14.642;2023-07-13T00:06:24;96843.53;;;20.46;82.71
39769;BME280;38939;47.824;14.642;2023-07-13T00:07:26;96843.53;;;20.46;82.39
39769;BME280;38939;47.824;14.642;2023-07-13T00:08:30;96852.00;;;20.48;82.70
39769;BME280;38939;47.824;14.642;2023-07-13T00:09:31;96841.41;;;20.48;83.24
39769;BME280;38939;47.824;14.642;2023-07-13T00:10:33;96837.16;;;20.42;84.03
39769;BME280;38939;47.824;14.642;2023-07-13T00:11:35;96837.69;;;20.39;84.42
39769;BME280;38939;47.824;14.642;2023-07-13T00:12:37;96830.81;;;20.38;84.52
39769;BME280;38939;47.824;14.642;2023-07-13T00:13:43;96828.69;;;20.40;84.26
39769;BME280;38939;47.824;14.642;2023-07-13T00:14:45;96828.41;;;20.42;84.09
39769;BME280;38939;47.824;14.642;2023-07-13T00:15:47;96832.09;;;20.46;83.96
39769;BME280;38939;47.824;14.642;2023-07-13T00:16:49;96830.78;;;20.48;83.42
39769;BME280;38939;47.824;14.642;2023-07-13T00:17:52;96843.75;;;20.50;83.14
39769;BME280;38939;47.824;14.642;2023-07-13T00:18:54;96843.50;;;20.51;82.98
39769;BME280;38939;47.824;14.642;2023-07-13T00:19:56;96838.75;;;20.48;83.41
39769;BME280;38939;47.824;14.642;2023-07-13T00:20:58;96845.09;;;20.47;83.23
39769;BME280;38939;47.824;14.642;2023-07-13T00:22:06;96837.94;;;20.48;83.12
39769;BME280;38939;47.824;14.642;2023-07-13T00:23:08;96840.59;;;20.48;83.24
39769;BME280;38939;47.824;14.642;2023-07-13T00:24:12;96837.13;;;20.47;82.99
39769;BME280;38939;47.824;14.642;2023-07-13T00:25:14;96837.94;;;20.43;83.89
39769;BME280;38939;47.824;14.642;2023-07-13T00:26:18;96840.06;;;20.41;83.78
39769;BME280;38939;47.824;14.642;2023-07-13T00:27:20;96835.56;;;20.41;83.71
39769;BME280;38939;47.824;14.642;2023-07-13T00:28:22;96832.91;;;20.41;84.04
39769;BME280;38939;47.824;14.642;2023-07-13T00:29:25;96833.44;;;20.43;83.44
39769;BME280;38939;47.824;14.642;2023-07-13T00:30:27;96833.44;;;20.43;83.80
39769;BME280;38939;47.824;14.642;2023-07-13T00:31:30;96837.94;;;20.43;83.86
39769;BME280;38939;47.824;14.642;2023-07-13T00:32:32;96833.97;;;20.40;84.96
39769;BME280;38939;47.824;14.642;2023-07-13T00:33:34;96834.25;;;20.38;86.24
39769;BME280;38939;47.824;14.642;2023-07-13T00:34:36;96829.19;;;20.37;86.24
39769;BME280;38939;47.824;14.642;2023-07-13T00:35:38;96829.19;;;20.37;85.73
39769;BME280;38939;47.824;14.642;2023-07-13T00:36:41;96827.34;;;20.37;85.44
39769;BME280;38939;47.824;14.642;2023-07-13T00:37:42;96828.94;;;20.38;85.19
39769;BME280;38939;47.824;14.642;2023-07-13T00:38:44;96824.16;;;20.41;84.94
39769;BME280;38939;47.824;14.642;2023-07-13T00:39:46;96813.56;;;20.41;84.76
39769;BME280;38939;47.824;14.642;2023-07-13T00:40:48;96813.31;;;20.42;84.43
39769;BME280;38939;47.824;14.642;2023-07-13T00:41:50;96809.31;;;20.45;84.23
39769;BME280;38939;47.824;14.642;2023-07-13T00:42:52;96807.47;;;20.45;84.36
39769;BME280;38939;47.824;14.642;2023-07-13T00:43:54;96805.59;;;20.46;84.74
39769;BME280;38939;47.824;14.642;2023-07-13T00:46:31;96789.69;;;20.46;85.18
39769;BME280;38939;47.824;14.642;2023-07-13T00:47:33;96795.00;;;20.46;85.12
39769;BME280;38939;47.824;14.642;2023-07-13T00:48:35;96787.84;;;20.46;84.57
39769;BME280;38939;47.824;14.642;2023-07-13T00:49:39;96793.16;;;20.46;84.65
39769;BME280;38939;47.824;14.642;2023-07-13T00:50:41;96797.38;;;20.47;85.08
39769;BME280;38939;47.824;14.642;2023-07-13T00:51:47;96792.09;;;20.47;84.82
39769;BME280;38939;47.824;14.642;2023-07-13T00:52:51;96794.72;;;20.47;84.83
39769;BME280;38939;47.824;14.642;2023-07-13T00:53:56;96808.50;;;20.49;84.49
39769;BME280;38939;47.824;14.642;2023-07-13T00:54:59;96813.03;;;20.49;84.62
39769;BME280;38939;47.824;14.642;2023-07-13T00:56:01;96813.81;;;20.49;84.32
39769;BME280;38939;47.824;14.642;2023-07-13T00:57:05;96815.69;;;20.49;84.95
39769;BME280;38939;47.824;14.642;2023-07-13T00:58:09;96811.16;;;20.49;84.84
39769;BME280;38939;47.824;14.642;2023-07-13T00:59:11;96813.56;;;20.51;84.48
39769;BME280;38939;47.824;14.642;2023-07-13T01:00:14;96818.06;;;20.50;84.76
39769;BME280;38939;47.824;14.642;2023-07-13T01:01:16;96819.66;;;20.46;85.53
39769;BME280;38939;47.824;14.642;2023-07-13T01:02:18;96827.34;;;20.43;86.17
39769;BME280;38939;47.824;14.642;2023-07-13T01:03:20;96833.44;;;20.43;85.78
39769;BME280;38939;47.824;14.642;2023-07-13T01:04:25;96841.13;;;20.45;85.24
39769;BME280;38939;47.824;14.642;2023-07-13T01:05:27;96844.31;;;20.47;85.34
39769;BME280;38939;47.824;14.642;2023-07-13T01:06:29;96845.88;;;20.48;85.12
39769;BME280;38939;47.824;14.642;2023-07-13T01:07:32;96842.44;;;20.47;85.08
39769;BME280;38939;47.824;14.642;2023-07-13T01:08:34;96845.09;;;20.47;85.08
39769;BME280;38939;47.824;14.642;2023-07-13T01:09:36;96848.00;;;20.46;84.87
39769;BME280;38939;47.824;14.642;2023-07-13T01:10:38;96852.25;;;20.47;85.19
39769;BME280;38939;47.824;14.642;2023-07-13T01:11:42;96861.53;;;20.44;85.59
39769;BME280;38939;47.824;14.642;2023-07-13T01:12:46;96861.81;;;20.43;85.56
39769;BME280;38939;47.824;14.642;2023-07-13T01:13:48;96863.94;;;20.41;86.16
39769;BME280;38939;47.824;14.642;2023-07-13T01:14:56;96866.56;;;20.41;86.20
39769;BME280;38939;47.824;14.642;2023-07-13T01:15:58;96867.38;;;20.41;85.84
39769;BME280;38939;47.824;14.642;2023-07-13T01:17:03;96861.53;;;20.34;86.42
39769;BME280;38939;47.824;14.642;2023-07-13T01:18:07;96867.63;;;20.24;86.63
39769;BME280;38939;47.824;14.642;2023-07-13T01:19:19;96857.81;;;20.19;86.58
39769;BME280;38939;47.824;14.642;2023-07-13T01:20:23;96858.88;;;20.18;86.69
39769;BME280;38939;47.824;14.642;2023-07-13T01:21:31;96861.00;;;20.16;86.53
39769;BME280;38939;47.824;14.642;2023-07-13T01:22:34;96872.13;;;20.18;86.17
39769;BME280;38939;47.824;14.642;2023-07-13T01:23:36;96871.59;;;20.16;86.98
39769;BME280;38939;47.824;14.642;2023-07-13T01:24:38;96870.81;;;20.16;87.07
39769;BME280;38939;47.824;14.642;2023-07-13T01:25:40;96873.72;;;20.14;86.99
39769;BME280;38939;47.824;14.642;2023-07-13T01:26:42;96871.06;;;20.09;87.23
39769;BME280;38939;47.824;14.642;2023-07-13T01:27:44;96868.69;;;20.08;87.64
39769;BME280;38939;47.824;14.642;2023-07-13T01:28:46;96858.88;;;20.08;87.46
39769;BME280;38939;47.824;14.642;2023-07-13T01:29:47;96861.00;;;20.06;87.64
39769;BME280;38939;47.824;14.642;2023-07-13T01:30:49;96872.09;;;20.03;87.90
39769;BME280;38939;47.824;14.642;2023-07-13T01:31:51;96874.78;;;19.98;88.07
39769;BME280;38939;47.824;14.642;2023-07-13T01:32:53;96870.00;;;19.90;88.28
39769;BME280;38939;47.824;14.642;2023-07-13T01:33:55;96872.63;;;19.85;88.87
39769;BME280;38939;47.824;14.642;2023-07-13T01:34:59;96882.66;;;19.83;89.23
39769;BME280;38939;47.824;14.642;2023-07-13T01:36:01;96877.13;;;19.84;89.47
39769;BME280;38939;47.824;14.642;2023-07-13T01:37:04;96874.72;;;19.83;89.14
39769;BME280;38939;47.824;14.642;2023-07-13T01:38:06;96877.38;;;19.83;89.38
39769;BME280;38939;47.824;14.642;2023-07-13T01:39:09;96880.28;;;19.81;89.96
39769;BME280;38939;47.824;14.642;2023-07-13T01:40:12;96881.59;;;19.78;89.80
39769;BME280;38939;47.824;14.642;2023-07-13T01:41:14;96878.44;;;19.82;89.88
39769;BME280;38939;47.824;14.642;2023-07-13T01:42:16;96872.09;;;19.83;89.66
39769;BME280;38939;47.824;14.642;2023-07-13T01:43:18;96867.84;;;19.82;89.93
39769;BME280;38939;47.824;14.642;2023-07-13T01:44:20;96874.72;;;19.83;90.09
39769;BME280;38939;47.824;14.642;2023-07-13T01:45:22;96873.91;;;19.77;90.08
39769;BME280;38939;47.824;14.642;2023-07-13T01:46:24;96880.78;;;19.73;89.87
39769;BME280;38939;47.824;14.642;2023-07-13T01:47:26;96883.44;;;19.73;90.04
39769;BME280;38939;47.824;14.642;2023-07-13T01:48:29;96884.78;;;19.75;90.37
39769;BME280;38939;47.824;14.642;2023-07-13T01:49:31;96900.69;;;19.75;90.03
39769;BME280;38939;47.824;14.642;2023-07-13T01:50:33;96895.38;;;19.75;90.44
39769;BME280;38939;47.824;14.642;2023-07-13T01:51:35;96905.69;;;19.77;90.93
39769;BME280;38939;47.824;14.642;2023-07-13T01:52:37;96906.75;;;19.76;90.75
39769;BME280;38939;47.824;14.642;2023-07-13T01:53:39;96905.69;;;19.77;90.63
39769;BME280;38939;47.824;14.642;2023-07-13T01:54:41;96912.31;;;19.74;90.20
39769;BME280;38939;47.824;14.642;2023-07-13T01:55:42;96915.75;;;19.75;90.14
39769;BME280;38939;47.824;14.642;2023-07-13T01:56:44;96920.78;;;19.76;90.05
39769;BME280;38939;47.824;14.642;2023-07-13T01:57:46;96930.88;;;19.80;89.52
39769;BME280;38939;47.824;14.642;2023-07-13T01:58:48;96932.44;;;19.81;89.07
39769;BME280;38939;47.824;14.642;2023-07-13T01:59:50;96926.91;;;19.82;89.68
39769;BME280;38939;47.824;14.642;2023-07-13T02:00:52;96936.16;;;19.85;89.56
39769;BME280;38939;47.824;14.642;2023-07-13T02:01:54;96940.44;;;19.86;89.15
39769;BME280;38939;47.824;14.642;2023-07-13T02:02:56;96938.31;;;19.88;89.36
39769;BME280;38939;47.824;14.642;2023-07-13T02:03:58;96944.66;;;19.87;89.91
39769;BME280;38939;47.824;14.642;2023-07-13T02:05:00;96942.53;;;19.84;90.61
39769;BME280;38939;47.824;14.642;2023-07-13T02:06:02;96944.66;;;19.82;90.88
39769;BME280;38939;47.824;14.642;2023-07-13T02:07:04;96938.81;;;19.80;91.31
39769;BME280;38939;47.824;14.642;2023-07-13T02:08:06;96940.09;;;19.77;91.36
39769;BME280;38939;47.824;14.642;2023-07-13T02:09:08;96928.97;;;19.75;91.38
39769;BME280;38939;47.824;14.642;2023-07-13T02:10:10;96934.28;;;19.75;91.34
39769;BME280;38939;47.824;14.642;2023-07-13T02:11:12;96936.69;;;19.76;91.14
39769;BME280;38939;47.824;14.642;2023-07-13T02:12:14;96933.22;;;19.71;91.39
39769;BME280;38939;47.824;14.642;2023-07-13T02:13:16;96931.03;;;19.63;92.06
39769;BME280;38939;47.824;14.642;2023-07-13T02:14:18;96938.44;;;19.61;92.15
39769;BME280;38939;47.824;14.642;2023-07-13T02:15:19;96939.75;;;19.58;92.67
39769;BME280;38939;47.824;14.642;2023-07-13T02:16:22;96943.69;;;19.50;92.91
39769;BME280;38939;47.824;14.642;2023-07-13T02:17:24;96938.09;;;19.47;92.69
39769;BME280;38939;47.824;14.642;2023-07-13T02:18:26;96943.94;;;19.44;93.08
39769;BME280;38939;47.824;14.642;2023-07-13T02:19:31;96932.28;;;19.45;92.82
39769;BME280;38939;47.824;14.642;2023-07-13T02:20:33;96943.63;;;19.40;92.78
39769;BME280;38939;47.824;14.642;2023-07-13T02:21:37;96947.59;;;19.37;93.01
39769;BME280;38939;47.824;14.642;2023-07-13T02:22:39;96944.97;;;19.37;93.17
39769;BME280;38939;47.824;14.642;2023-07-13T02:23:41;96944.97;;;19.37;92.82
39769;BME280;38939;47.824;14.642;2023-07-13T02:24:43;96957.13;;;19.38;92.80
39769;BME280;38939;47.824;14.642;2023-07-13T02:25:45;96955.00;;;19.41;92.90
39769;BME280;38939;47.824;14.642;2023-07-13T02:26:47;96947.63;;;19.43;93.00
39769;BME280;38939;47.824;14.642;2023-07-13T02:27:49;96944.72;;;19.44;92.78
39769;BME280;38939;47.824;14.642;2023-07-13T02:28:51;96951.34;;;19.47;92.84
39769;BME280;38939;47.824;14.642;2023-07-13T02:29:53;96948.16;;;19.45;93.33
39769;BME280;38939;47.824;14.642;2023-07-13T02:30:55;96952.91;;;19.43;93.68
39769;BME280;38939;47.824;14.642;2023-07-13T02:31:57;96945.50;;;19.45;93.78
39769;BME280;38939;47.824;14.642;2023-07-13T02:32:59;96944.97;;;19.43;93.56
39769;BME280;38939;47.824;14.642;2023-07-13T02:34:01;96945.50;;;19.45;93.43
39769;BME280;38939;47.824;14.642;2023-07-13T02:35:03;96938.09;;;19.47;93.46
39769;BME280;38939;47.824;14.642;2023-07-13T02:36:05;96936.00;;;19.49;93.13
39769;BME280;38939;47.824;14.642;2023-07-13T02:37:07;96928.88;;;19.49;93.05
39769;BME280;38939;47.824;14.642;2023-07-13T02:38:09;96929.91;;;19.48;93.18
39769;BME280;38939;47.824;14.642;2023-07-13T02:39:11;96926.97;;;19.45;93.67
39769;BME280;38939;47.824;14.642;2023-07-13T02:40:14;96929.09;;;19.43;93.67
39769;BME280;38939;47.824;14.642;2023-07-13T02:41:15;96925.41;;;19.44;93.83
39769;BME280;38939;47.824;14.642;2023-07-13T02:42:17;96919.03;;;19.45;93.75
39769;BME280;38939;47.824;14.642;2023-07-13T02:43:19;96914.03;;;19.43;93.36
39769;BME280;38939;47.824;14.642;2023-07-13T02:44:21;96910.03;;;19.41;93.44
39769;BME280;38939;47.824;14.642;2023-07-13T02:45:23;96906.59;;;19.40;93.41
39769;BME280;38939;47.824;14.642;2023-07-13T02:46:24;96902.91;;;19.41;93.73
39769;BME280;38939;47.824;14.642;2023-07-13T02:47:27;96905.28;;;19.43;93.42
39769;BME280;38939;47.824;14.642;2023-07-13T02:48:29;96892.03;;;19.43;93.25
39769;BME280;38939;47.824;14.642;2023-07-13T02:49:31;96882.53;;;19.42;93.46
39769;BME280;38939;47.824;14.642;2023-07-13T02:50:34;96884.91;;;19.43;93.36
39769;BME280;38939;47.824;14.642;2023-07-13T02:51:36;96872.47;;;19.44;93.30
39769;BME280;38939;47.824;14.642;2023-07-13T02:52:38;96882.53;;;19.42;93.10
39769;BME280;38939;47.824;14.642;2023-07-13T02:53:39;96871.94;;;19.42;92.75
39769;BME280;38939;47.824;14.642;2023-07-13T02:54:41;96868.75;;;19.39;92.89
39769;BME280;38939;47.824;14.642;2023-07-13T02:55:43;96864.50;;;19.38;93.16
39769;BME280;38939;47.824;14.642;2023-07-13T02:56:48;96852.88;;;19.39;93.28
39769;BME280;38939;47.824;14.642;2023-07-13T02:57:50;96851.56;;;19.37;93.51
39769;BME280;38939;47.824;14.642;2023-07-13T02:58:52;96843.63;;;19.37;93.65
39769;BME280;38939;47.824;14.642;2023-07-13T02:59:56;96845.97;;;19.38;93.66
39769;BME280;38939;47.824;14.642;2023-07-13T03:00:58;96837.25;;;19.38;93.81
39769;BME280;38939;47.824;14.642;2023-07-13T03:02:00;96837.50;;;19.36;93.55
39769;BME280;38939;47.824;14.642;2023-07-13T03:03:02;96831.69;;;19.34;93.39
39769;BME280;38939;47.824;14.642;2023-07-13T03:04:04;96830.63;;;19.35;92.98
39769;BME280;38939;47.824;14.642;2023-07-13T03:05:07;96831.19;;;19.37;92.92
39769;BME280;38939;47.824;14.642;2023-07-13T03:06:09;96830.09;;;19.38;92.92
39769;BME280;38939;47.824;14.642;2023-07-13T03:07:11;96822.69;;;19.41;92.88
39769;BME280;38939;47.824;14.642;2023-07-13T03:08:15;96819.53;;;19.44;92.83
39769;BME280;38939;47.824;14.642;2023-07-13T03:09:17;96822.19;;;19.44;92.63
39769;BME280;38939;47.824;14.642;2023-07-13T03:10:19;96818.47;;;19.45;92.53
39769;BME280;38939;47.824;14.642;2023-07-13T03:11:21;96821.13;;;19.45;92.33
39769;BME280;38939;47.824;14.642;2023-07-13T03:12:23;96825.63;;;19.44;92.39
39769;BME280;38939;47.824;14.642;2023-07-13T03:13:25;96821.13;;;19.45;92.61
39769;BME280;38939;47.824;14.642;2023-07-13T03:14:27;96823.53;;;19.46;92.61
39769;BME280;38939;47.824;14.642;2023-07-13T03:15:29;96811.59;;;19.44;93.08
39769;BME280;38939;47.824;14.642;2023-07-13T03:16:30;96804.47;;;19.44;93.17
39769;BME280;38939;47.824;14.642;2023-07-13T03:17:32;96805.00;;;19.46;93.28
39769;BME280;38939;47.824;14.642;2023-07-13T03:18:35;96797.31;;;19.45;93.23
39769;BME280;38939;47.824;14.642;2023-07-13T03:19:37;96803.94;;;19.42;92.99
39769;BME280;38939;47.824;14.642;2023-07-13T03:20:39;96801.53;;;19.41;93.56
39769;BME280;38939;47.824;14.642;2023-07-13T03:21:41;96797.81;;;19.36;93.64
39769;BME280;38939;47.824;14.642;2023-07-13T03:22:43;96800.47;;;19.36;93.89
39769;BME280;38939;47.824;14.642;2023-07-13T03:23:45;96805.75;;;19.36;93.82
39769;BME280;38939;47.824;14.642;2023-07-13T03:24:47;96803.66;;;19.33;94.07
39769;BME280;38939;47.824;14.642;2023-07-13T03:25:50;96801.25;;;19.32;94.21
39769;BME280;38939;47.824;14.642;2023-07-13T03:26:52;96802.81;;;19.33;94.33
39769;BME280;38939;47.824;14.642;2023-07-13T03:27:54;96812.13;;;19.35;94.07
39769;BME280;38939;47.824;14.642;2023-07-13T03:28:56;96808.66;;;19.35;94.04
39769;BME280;38939;47.824;14.642;2023-07-13T03:29:57;96814.75;;;19.35;94.11
39769;BME280;38939;47.824;14.642;2023-07-13T03:31:03;96817.94;;;19.37;94.26
39769;BME280;38939;47.824;14.642;2023-07-13T03:32:06;96816.34;;;19.36;93.94
39769;BME280;38939;47.824;14.642;2023-07-13T03:33:08;96820.06;;;19.35;94.31
39769;BME280;38939;47.824;14.642;2023-07-13T03:34:10;96819.25;;;19.35;94.06
39769;BME280;38939;47.824;14.642;2023-07-13T03:35:12;96832.22;;;19.36;94.22
39769;BME280;38939;47.824;14.642;2023-07-13T03:36:15;96828.53;;;19.37;93.73
39769;BME280;38939;47.824;14.642;2023-07-13T03:37:20;96833.28;;;19.41;93.46
39769;BME280;38939;47.824;14.642;2023-07-13T03:38:22;96824.84;;;19.44;93.37
39769;BME280;38939;47.824;14.642;2023-07-13T03:39:24;96829.06;;;19.45;93.26
39769;BME280;38939;47.824;14.642;2023-07-13T03:40:28;96834.34;;;19.45;93.59
39769;BME280;38939;47.824;14.642;2023-07-13T03:41:30;96834.88;;;19.47;93.55
39769;BME280;38939;47.824;14.642;2023-07-13T03:42:33;96833.59;;;19.49;93.39
39769;BME280;38939;47.824;14.642;2023-07-13T03:43:35;96834.63;;;19.48;93.13
39769;BME280;38939;47.824;14.642;2023-07-13T03:44:39;96830.13;;;19.49;93.18
39769;BME280;38939;47.824;14.642;2023-07-13T03:45:41;96831.75;;;19.50;93.33
39769;BME280;38939;47.824;14.642;2023-07-13T03:46:43;96837.03;;;19.50;93.11
39769;BME280;38939;47.824;14.642;2023-07-13T03:47:46;96833.31;;;19.51;92.96
39769;BME280;38939;47.824;14.642;2023-07-13T03:48:47;96839.41;;;19.46;93.21
39769;BME280;38939;47.824;14.642;2023-07-13T03:49:50;96832.78;;;19.44;93.37
39769;BME280;38939;47.824;14.642;2023-07-13T03:50:52;96834.09;;;19.41;93.78
39769;BME280;38939;47.824;14.642;2023-07-13T03:51:53;96827.75;;;19.37;93.88
39769;BME280;38939;47.824;14.642;2023-07-13T03:52:55;96839.66;;;19.39;93.83
39769;BME280;38939;47.824;14.642;2023-07-13T03:53:57;96834.88;;;19.42;93.49
39769;BME280;38939;47.824;14.642;2023-07-13T03:54:59;96834.09;;;19.41;93.55
39769;BME280;38939;47.824;14.642;2023-07-13T03:56:01;96830.91;;;19.39;93.78
39769;BME280;38939;47.824;14.642;2023-07-13T03:57:03;96828.81;;;19.41;93.91
39769;BME280;38939;47.824;14.642;2023-07-13T03:59:25;96824.31;;;19.42;93.74
39769;BME280;38939;47.824;14.642;2023-07-13T04:00:27;96814.50;;;19.42;93.71
39769;BME280;38939;47.824;14.642;2023-07-13T04:01:29;96819.53;;;19.44;93.16
39769;BME280;38939;47.824;14.642;2023-07-13T04:02:31;96821.13;;;19.45;93.04
39769;BME280;38939;47.824;14.642;2023-07-13T04:03:33;96820.59;;;19.43;92.99
39769;BME280;38939;47.824;14.642;2023-07-13T04:04:35;96822.69;;;19.41;93.08
39769;BME280;38939;47.824;14.642;2023-07-13T04:05:37;96819.00;;;19.42;93.02
39769;BME280;38939;47.824;14.642;2023-07-13T04:06:42;96812.66;;;19.43;92.88
39769;BME280;38939;47.824;14.642;2023-07-13T04:07:43;96810.81;;;19.43;93.02
39769;BME280;38939;47.824;14.642;2023-07-13T04:08:45;96805.53;;;19.43;93.28
39769;BME280;38939;47.824;14.642;2023-07-13T04:09:47;96806.31;;;19.44;93.24
39769;BME280;38939;47.824;14.642;2023-07-13T04:10:50;96805.25;;;19.45;93.38
39769;BME280;38939;47.824;14.642;2023-07-13T04:11:52;96798.13;;;19.45;93.07
39769;BME280;38939;47.824;14.642;2023-07-13T04:12:53;96799.69;;;19.46;93.21
39769;BME280;38939;47.824;14.642;2023-07-13T04:13:55;96801.03;;;19.44;93.13
39769;BME280;38939;47.824;14.642;2023-07-13T04:14:57;96794.41;;;19.41;93.20
39769;BME280;38939;47.824;14.642;2023-07-13T04:15:59;96794.66;;;19.39;93.57
39769;BME280;38939;47.824;14.642;2023-07-13T04:17:01;96792.00;;;19.39;93.63
39769;BME280;38939;47.824;14.642;2023-07-13T04:18:04;96785.66;;;19.41;93.55
39769;BME280;38939;47.824;14.642;2023-07-13T04:19:06;96783.53;;;19.43;93.37
39769;BME280;38939;47.824;14.642;2023-07-13T04:20:08;96787.25;;;19.42;93.27
39769;BME280;38939;47.824;14.642;2023-07-13T04:21:09;96783.53;;;19.43;93.18
39769;BME280;38939;47.824;14.642;2023-07-13T04:22:11;96780.63;;;19.44;93.00
39769;BME280;38939;47.824;14.642;2023-07-13T04:23:13;96779.31;;;19.47;93.01
39769;BME280;38939;47.824;14.642;2023-07-13T04:24:15;96776.16;;;19.50;92.66
39769;BME280;38939;47.824;14.642;2023-07-13T04:25:17;96771.41;;;19.52;92.42
39769;BME280;38939;47.824;14.642;2023-07-13T04:26:19;96769.78;;;19.51;92.17
39769;BME280;38939;47.824;14.642;2023-07-13T04:27:22;96774.31;;;19.50;92.68
39769;BME280;38939;47.824;14.642;2023-07-13T04:28:26;96769.53;;;19.47;92.96
39769;BME280;38939;47.824;14.642;2023-07-13T04:29:28;96769.00;;;19.45;92.98
39769;BME280;38939;47.824;14.642;2023-07-13T04:30:31;96765.56;;;19.45;92.98
39769;BME280;38939;47.824;14.642;2023-07-13T04:31:33;96770.59;;;19.46;93.00
39769;BME280;38939;47.824;14.642;2023-07-13T04:32:35;96772.97;;;19.48;92.91
39769;BME280;38939;47.824;14.642;2023-07-13T04:33:37;96787.53;;;19.45;93.00
39769;BME280;38939;47.824;14.642;2023-07-13T04:34:39;96764.75;;;19.44;92.88
39769;BME280;38939;47.824;14.642;2023-07-13T04:35:41;96770.31;;;19.43;93.33
39769;BME280;38939;47.824;14.642;2023-07-13T04:36:43;96763.44;;;19.42;93.06
39769;BME280;38939;47.824;14.642;2023-07-13T04:37:44;96774.03;;;19.42;93.07
39769;BME280;38939;47.824;14.642;2023-07-13T04:38:46;96765.00;;;19.43;93.18
39769;BME280;38939;47.824;14.642;2023-07-13T04:39:48;96766.63;;;19.44;93.21
39769;BME280;38939;47.824;14.642;2023-07-13T04:40:50;96777.75;;;19.46;92.86
39769;BME280;38939;47.824;14.642;2023-07-13T04:41:52;96773.22;;;19.46;92.72
39769;BME280;38939;47.824;14.642;2023-07-13T04:42:54;96780.63;;;19.44;92.69
39769;BME280;38939;47.824;14.642;2023-07-13T04:43:56;96776.66;;;19.47;92.51
39769;BME280;38939;47.824;14.642;2023-07-13T04:44:58;96784.34;;;19.48;92.32
39769;BME280;38939;47.824;14.642;2023-07-13T04:46:05;96783.56;;;19.48;92.35
39769;BME280;38939;47.824;14.642;2023-07-13T04:47:07;96786.75;;;19.50;92.22
39769;BME280;38939;47.824;14.642;2023-07-13T04:48:09;96781.97;;;19.52;92.01
39769;BME280;38939;47.824;14.642;2023-07-13T04:49:11;96795.75;;;19.54;91.86
39769;BME280;38939;47.824;14.642;2023-07-13T04:50:13;96786.75;;;19.55;91.57
39769;BME280;38939;47.824;14.642;2023-07-13T04:51:23;96789.91;;;19.57;91.48
39769;BME280;38939;47.824;14.642;2023-07-13T04:52:24;96795.75;;;19.59;91.44
39769;BME280;38939;47.824;14.642;2023-07-13T04:53:27;96801.03;;;19.59;91.16
39769;BME280;38939;47.824;14.642;2023-07-13T04:54:29;96802.91;;;19.58;91.25
39769;BME280;38939;47.824;14.642;2023-07-13T04:55:31;96797.34;;;19.60;91.45
39769;BME280;38939;47.824;14.642;2023-07-13T04:56:33;96804.22;;;19.61;91.16
39769;BME280;38939;47.824;14.642;2023-07-13T04:57:35;96806.59;;;19.63;91.16
39769;BME280;38939;47.824;14.642;2023-07-13T04:58:36;96803.72;;;19.64;90.95
39769;BME280;38939;47.824;14.642;2023-07-13T04:59:38;96801.06;;;19.64;91.31
39769;BME280;38939;47.824;14.642;2023-07-13T05:00:40;96801.31;;;19.63;91.65
39769;BME280;38939;47.824;14.642;2023-07-13T05:01:42;96799.47;;;19.63;91.56
39769;BME280;38939;47.824;14.642;2023-07-13T05:02:44;96808.22;;;19.64;91.65
39769;BME280;38939;47.824;14.642;2023-07-13T05:03:49;96812.44;;;19.65;91.75
39769;BME280;38939;47.824;14.642;2023-07-13T05:04:51;96802.63;;;19.65;91.57
39769;BME280;38939;47.824;14.642;2023-07-13T05:06:00;96814.03;;;19.66;91.79
39769;BME280;38939;47.824;14.642;2023-07-13T05:07:02;96816.41;;;19.67;91.79
39769;BME280;38939;47.824;14.642;2023-07-13T05:08:04;96816.41;;;19.67;91.56
39769;BME280;38939;47.824;14.642;2023-07-13T05:09:06;96818.25;;;19.67;92.01
39769;BME280;38939;47.824;14.642;2023-07-13T05:10:09;96814.84;;;19.66;91.83
39769;BME280;38939;47.824;14.642;2023-07-13T05:11:11;96822.78;;;19.66;92.13
39769;BME280;38939;47.824;14.642;2023-07-13T05:12:13;96814.56;;;19.63;92.48
39769;BME280;38939;47.824;14.642;2023-07-13T05:13:15;96828.56;;;19.63;91.92
39769;BME280;38939;47.824;14.642;2023-07-13T05:14:17;96824.09;;;19.64;91.98
39769;BME280;38939;47.824;14.642;2023-07-13T05:15:21;96825.41;;;19.66;91.85
39769;BME280;38939;47.824;14.642;2023-07-13T05:16:23;96817.22;;;19.68;91.76
39769;BME280;38939;47.824;14.642;2023-07-13T05:17:25;96817.22;;;19.68;92.02
39769;BME280;38939;47.824;14.642;2023-07-13T05:18:27;96819.34;;;19.66;92.31
39769;BME280;38939;47.824;14.642;2023-07-13T05:19:29;96814.84;;;19.66;92.26
39769;BME280;38939;47.824;14.642;2023-07-13T05:20:31;96813.75;;;19.67;91.82
39769;BME280;38939;47.824;14.642;2023-07-13T05:21:33;96819.06;;;19.67;92.07
39769;BME280;38939;47.824;14.642;2023-07-13T05:30:29;96802.38;;;19.62;92.26
39769;BME280;38939;47.824;14.642;2023-07-13T05:31:30;96807.41;;;19.58;91.83
39769;BME280;38939;47.824;14.642;2023-07-13T05:32:32;96805.53;;;19.58;91.50
39769;BME280;38939;47.824;14.642;2023-07-13T05:33:35;96808.47;;;19.62;91.34
39769;BME280;38939;47.824;14.642;2023-07-13T05:34:37;96811.38;;;19.61;91.67
39769;BME280;38939;47.824;14.642;2023-07-13T05:35:39;96806.06;;;19.61;91.88
39769;BME280;38939;47.824;14.642;2023-07-13T05:36:41;96807.41;;;19.63;91.76